createdAt,value
2023-09-22T00:01:32.440Z,100.00
2023-09-22T00:06:34.420Z,100.00
2023-09-22T00:11:36.267Z,100.00
2023-09-22T00:16:38.217Z,100.00
2023-09-22T00:21:40.176Z,100.00
2023-09-22T00:26:42.164Z,100.00
2023-09-22T00:31:44.279Z,100.00
2023-09-22T00:36:46.375Z,100.00
2023-09-22T00:41:48.385Z,100.00
2023-09-22T00:46:50.469Z,100.00
2023-09-22T00:51:52.421Z,100.00
2023-09-22T00:56:54.428Z,100.00
2023-09-22T01:01:56.540Z,100.00
2023-09-22T01:06:58.274Z,100.00
2023-09-22T01:12:00.190Z,100.00
2023-09-22T01:17:02.157Z,100.00
2023-09-22T01:22:04.176Z,100.00
2023-09-22T01:27:06.317Z,100.00
2023-09-22T01:32:08.058Z,100.00
2023-09-22T01:37:10.053Z,100.00
2023-09-22T01:42:11.910Z,100.00
2023-09-22T01:47:13.805Z,100.00
2023-09-22T01:52:15.721Z,100.00
2023-09-22T01:57:17.733Z,100.00
2023-09-22T02:02:19.511Z,100.00
2023-09-22T02:07:21.512Z,100.00
2023-09-22T02:12:23.211Z,100.00
2023-09-22T02:17:25.044Z,100.00
2023-09-22T02:22:27.030Z,100.00
2023-09-22T02:27:29.013Z,100.00
2023-09-22T02:32:30.867Z,100.00
2023-09-22T02:37:32.916Z,100.00
2023-09-22T02:42:35.144Z,100.00
2023-09-22T02:47:40.793Z,100.00
2023-09-22T02:52:42.844Z,100.00
2023-09-22T02:57:44.854Z,100.00
2023-09-22T03:02:47.006Z,100.00
2023-09-22T03:07:50.161Z,100.00
2023-09-22T03:12:52.360Z,100.00
2023-09-22T03:17:54.593Z,100.00
2023-09-22T03:22:56.785Z,100.00
2023-09-22T03:27:58.614Z,100.00
2023-09-22T03:33:00.694Z,100.00
2023-09-22T03:38:02.894Z,100.00
2023-09-22T03:43:04.707Z,100.00
2023-09-22T03:48:07.069Z,100.00
2023-09-22T03:53:09.052Z,100.00
2023-09-22T03:58:11.124Z,100.00
2023-09-22T04:03:13.468Z,100.00
2023-09-22T04:08:15.555Z,100.00
2023-09-22T04:13:17.312Z,100.00
2023-09-22T04:18:19.288Z,100.00
2023-09-22T04:23:21.071Z,100.00
2023-09-22T04:28:26.241Z,100.00
2023-09-22T04:33:28.411Z,100.00
2023-09-22T04:38:30.472Z,100.00
2023-09-22T04:43:32.231Z,100.00
2023-09-22T04:48:34.269Z,100.00
2023-09-22T04:53:37.582Z,100.00
2023-09-22T04:58:39.385Z,100.00
2023-09-22T05:03:41.764Z,100.00
2023-09-22T05:08:44.089Z,100.00
2023-09-22T05:13:46.243Z,100.00
2023-09-22T05:18:48.086Z,100.00
2023-09-22T05:23:50.094Z,100.00
2023-09-22T05:28:51.891Z,99.52
2023-09-22T05:33:53.923Z,99.60
2023-09-22T05:38:56.001Z,98.07
2023-09-22T05:43:57.717Z,96.70
2023-09-22T05:48:59.744Z,96.75
2023-09-22T05:54:01.703Z,95.94
2023-09-22T05:59:03.632Z,94.46
2023-09-22T06:04:06.041Z,93.36
2023-09-22T06:09:08.138Z,91.67
2023-09-22T06:14:10.110Z,89.83
2023-09-22T06:19:12.201Z,63.49
2023-09-22T06:24:14.167Z,45.16
2023-09-22T06:29:16.178Z,38.15
2023-09-22T06:34:18.094Z,34.26
2023-09-22T06:39:20.088Z,31.85
2023-09-22T06:44:22.152Z,33.25
2023-09-22T06:49:24.065Z,30.04
2023-09-22T06:54:26.090Z,26.01
2023-09-22T06:59:28.036Z,25.51
2023-09-22T07:04:29.978Z,23.83
2023-09-22T07:09:32.020Z,23.33
2023-09-22T07:14:34.060Z,21.47
2023-09-22T07:19:39.607Z,21.08
2023-09-22T07:24:41.550Z,20.33
2023-09-22T07:29:43.770Z,21.26
2023-09-22T07:34:45.917Z,26.50
2023-09-22T07:39:47.951Z,34.83
2023-09-22T07:44:49.915Z,39.82
2023-09-22T07:49:51.897Z,43.52
2023-09-22T07:54:53.848Z,45.46
2023-09-22T07:59:55.844Z,48.07
2023-09-22T08:04:57.797Z,48.55
2023-09-22T08:09:59.856Z,49.90
2023-09-22T08:15:01.869Z,51.01
2023-09-22T08:20:04.824Z,50.99
2023-09-22T08:25:08.698Z,51.33
2023-09-22T08:30:11.946Z,51.58
2023-09-22T08:35:14.815Z,50.41
2023-09-22T08:40:17.447Z,48.35
2023-09-22T08:45:19.667Z,47.28
2023-09-22T08:50:21.777Z,47.84
2023-09-22T08:55:23.802Z,47.37
2023-09-22T09:00:27.356Z,46.68
2023-09-22T09:05:30.808Z,47.37
2023-09-22T09:10:36.063Z,47.27
2023-09-22T09:15:48.618Z,46.96
2023-09-22T09:21:12.808Z,46.43
2023-09-22T09:26:14.819Z,45.22
2023-09-22T09:31:16.877Z,45.10
2023-09-22T09:36:18.895Z,45.01
2023-09-22T09:41:20.945Z,43.19
2023-09-22T09:46:23.066Z,42.73
2023-09-22T09:51:25.121Z,42.44
2023-09-22T09:56:27.147Z,40.89
2023-09-22T10:01:29.207Z,39.75
2023-09-22T10:06:38.145Z,39.39
2023-09-22T10:11:40.594Z,39.06
2023-09-22T10:16:42.690Z,39.32
2023-09-22T10:21:44.773Z,38.20
2023-09-22T10:27:10.711Z,36.70
2023-09-22T10:32:18.847Z,36.40
2023-09-22T10:37:26.366Z,37.06
2023-09-22T10:42:28.648Z,36.17
2023-09-22T10:47:40.538Z,36.24
2023-09-22T10:52:53.334Z,35.93
2023-09-22T10:57:56.230Z,36.48
2023-09-22T11:03:13.705Z,36.46
2023-09-22T11:08:16.551Z,35.49
2023-09-22T11:13:18.468Z,35.05
2023-09-22T11:18:35.789Z,34.23
2023-09-22T11:23:39.063Z,34.39
2023-09-22T11:28:42.016Z,34.20
2023-09-22T11:33:45.000Z,34.43
2023-09-22T11:38:54.135Z,35.01
2023-09-22T11:43:56.194Z,35.13
2023-09-22T11:49:07.400Z,34.07
2023-09-22T11:54:09.764Z,34.01
2023-09-22T11:59:19.444Z,34.05
2023-09-22T12:04:21.869Z,33.27
2023-09-22T12:09:23.952Z,33.16
2023-09-22T12:14:25.903Z,33.86
2023-09-22T12:19:28.056Z,33.71
2023-09-22T12:24:30.112Z,32.89
2023-09-22T12:29:32.309Z,32.34
2023-09-22T12:34:34.309Z,32.41
2023-09-22T12:39:36.304Z,32.92
2023-09-22T12:44:38.240Z,33.43
2023-09-22T12:49:40.283Z,32.92
2023-09-22T12:54:42.340Z,32.84
2023-09-22T12:59:44.399Z,33.16
2023-09-22T13:04:48.095Z,33.09
2023-09-22T13:09:52.963Z,33.10
2023-09-22T13:14:55.268Z,33.04
2023-09-22T13:19:57.427Z,32.75
2023-09-22T13:24:59.464Z,32.76
2023-09-22T13:30:01.530Z,32.09
2023-09-22T13:35:06.209Z,32.03
2023-09-22T13:40:08.962Z,32.26
2023-09-22T13:45:11.189Z,32.79
2023-09-22T13:50:13.327Z,32.96
2023-09-22T13:55:15.342Z,33.75
2023-09-22T14:00:17.463Z,33.24
2023-09-22T14:05:19.499Z,32.84
2023-09-22T14:10:21.716Z,33.01
2023-09-22T14:15:23.760Z,32.98
2023-09-22T14:20:25.740Z,33.37
2023-09-22T14:25:27.875Z,33.91
2023-09-22T14:30:29.984Z,34.09
2023-09-22T14:35:31.988Z,34.10
2023-09-22T14:40:34.863Z,34.72
2023-09-22T14:45:37.504Z,34.83
2023-09-22T14:50:39.624Z,35.16
2023-09-22T14:55:42.242Z,35.42
2023-09-22T15:00:44.245Z,35.44
2023-09-22T15:05:46.382Z,35.69
2023-09-22T15:10:52.262Z,36.26
2023-09-22T15:15:54.145Z,36.33
2023-09-22T15:21:03.891Z,36.16
2023-09-22T15:26:06.897Z,36.24
2023-09-22T15:31:10.096Z,36.73
2023-09-22T15:36:12.466Z,36.44
2023-09-22T15:41:15.636Z,36.60
2023-09-22T15:46:17.794Z,37.50
2023-09-22T15:51:19.848Z,37.52
2023-09-22T15:56:22.002Z,37.58
2023-09-22T16:01:24.146Z,37.71
2023-09-22T16:06:26.207Z,38.22
2023-09-22T16:11:28.154Z,37.73
2023-09-22T16:16:30.276Z,38.24
2023-09-22T16:21:32.401Z,38.06
2023-09-22T16:26:34.451Z,38.26
2023-09-22T16:31:37.064Z,38.92
2023-09-22T16:36:39.235Z,38.97
2023-09-22T16:41:41.364Z,38.63
2023-09-22T16:46:43.453Z,39.14
2023-09-22T16:51:45.593Z,38.50
2023-09-22T16:56:47.667Z,38.94
2023-09-22T17:01:49.728Z,39.37
2023-09-22T17:06:51.786Z,39.73
2023-09-22T17:11:53.819Z,39.75
2023-09-22T17:16:56.255Z,39.75
2023-09-22T17:21:58.276Z,39.64
2023-09-22T17:27:00.249Z,39.85
2023-09-22T17:32:01.987Z,40.03
2023-09-22T17:37:04.016Z,39.95
2023-09-22T17:42:05.924Z,39.90
2023-09-22T17:47:07.816Z,40.47
2023-09-22T17:52:09.679Z,40.66
2023-09-22T17:57:11.428Z,40.44
2023-09-22T18:02:13.636Z,41.06
2023-09-22T18:07:15.701Z,41.33
2023-09-22T18:12:17.413Z,41.66
2023-09-22T18:17:19.878Z,41.71
2023-09-22T18:22:21.922Z,42.13
2023-09-22T18:27:24.239Z,42.33
2023-09-22T18:32:26.213Z,42.30
2023-09-22T18:37:28.556Z,42.42
2023-09-22T18:42:30.619Z,43.01
2023-09-22T18:47:32.699Z,43.08
2023-09-22T18:52:34.997Z,43.18
2023-09-22T18:57:37.000Z,43.87
2023-09-22T19:02:38.846Z,44.04
2023-09-22T19:07:41.698Z,44.21
2023-09-22T19:12:43.766Z,44.23
2023-09-22T19:17:46.050Z,44.42
2023-09-22T19:22:48.250Z,44.75
2023-09-22T19:27:50.515Z,44.88
2023-09-22T19:32:52.555Z,44.87
2023-09-22T19:37:54.665Z,44.91
2023-09-22T19:42:56.700Z,44.80
2023-09-22T19:47:58.535Z,44.76
2023-09-22T19:53:00.645Z,44.74
2023-09-22T19:58:03.270Z,45.27
2023-09-22T20:03:05.490Z,45.36
2023-09-22T20:08:07.581Z,45.27
2023-09-22T20:13:10.035Z,45.05
2023-09-22T20:18:12.079Z,45.23
2023-09-22T20:23:14.113Z,45.16
2023-09-22T20:28:15.865Z,45.56
2023-09-22T20:33:18.012Z,46.00
2023-09-22T20:38:20.644Z,46.55
2023-09-22T20:43:24.841Z,46.81
2023-09-22T20:48:26.842Z,47.06
2023-09-22T20:53:28.704Z,47.33
2023-09-22T20:58:30.968Z,47.85
2023-09-22T21:03:33.370Z,48.12
2023-09-22T21:08:35.556Z,48.53
2023-09-22T21:13:37.385Z,48.54
2023-09-22T21:18:39.408Z,49.00
2023-09-22T21:23:41.200Z,49.36
2023-09-22T21:28:43.349Z,49.86
2023-09-22T21:33:45.472Z,50.16
2023-09-22T21:38:47.517Z,51.21
2023-09-22T21:43:49.730Z,50.63
2023-09-22T21:48:51.884Z,50.91
2023-09-22T21:53:53.635Z,51.50
2023-09-22T21:58:55.620Z,51.60
2023-09-22T22:03:57.707Z,52.36
2023-09-22T22:08:59.657Z,51.90
2023-09-22T22:14:01.623Z,52.47
2023-09-22T22:19:03.613Z,52.63
2023-09-22T22:24:05.810Z,52.59
2023-09-22T22:29:07.867Z,52.78
2023-09-22T22:34:09.991Z,53.34
2023-09-22T22:39:11.975Z,53.43
2023-09-22T22:44:14.087Z,53.59
2023-09-22T22:49:16.238Z,53.34
2023-09-22T22:54:18.065Z,53.76
2023-09-22T22:59:20.365Z,53.41
2023-09-22T23:04:22.430Z,52.94
2023-09-22T23:09:24.152Z,53.02
2023-09-22T23:14:26.299Z,53.15
2023-09-22T23:19:28.395Z,53.26
2023-09-22T23:24:30.330Z,53.62
2023-09-22T23:29:32.397Z,53.50
2023-09-22T23:34:34.124Z,54.04
2023-09-22T23:39:36.075Z,54.11
2023-09-22T23:44:38.024Z,54.72
2023-09-22T23:49:40.005Z,55.03
2023-09-22T23:54:41.952Z,55.42
2023-09-22T23:59:44.417Z,56.09
